createdAt,value
2023-03-15T00:00:29.560Z,1.70
2023-03-15T00:02:56.536Z,1.80
2023-03-15T00:05:23.107Z,1.77
2023-03-15T00:07:49.757Z,2.00
2023-03-15T00:10:16.609Z,2.60
2023-03-15T00:12:43.199Z,1.88
2023-03-15T00:15:13.467Z,1.80
2023-03-15T00:17:40.042Z,1.40
2023-03-15T00:20:07.803Z,1.20
2023-03-15T00:22:34.409Z,1.13
2023-03-15T00:25:01.200Z,1.40
2023-03-15T00:27:27.810Z,0.88
2023-03-15T00:29:54.443Z,1.00
2023-03-15T00:32:21.169Z,0.80
2023-03-15T00:34:49.142Z,0.73
2023-03-15T00:37:16.964Z,0.80
2023-03-15T00:39:45.443Z,0.70
2023-03-15T00:42:16.547Z,0.85
2023-03-15T00:44:44.014Z,0.70
2023-03-15T00:47:12.184Z,1.00
2023-03-15T00:49:40.303Z,1.25
2023-03-15T00:52:07.805Z,0.82
2023-03-15T00:54:34.512Z,1.42
2023-03-15T00:57:01.537Z,0.85
2023-03-15T00:59:29.807Z,1.10
2023-03-15T01:01:56.393Z,0.82
2023-03-15T01:04:23.014Z,0.80
2023-03-15T01:06:51.146Z,1.27
2023-03-15T01:09:17.732Z,2.33
2023-03-15T01:11:45.272Z,2.80
2023-03-15T01:14:11.803Z,1.98
2023-03-15T01:16:38.551Z,4.43
2023-03-15T01:19:05.130Z,4.32
2023-03-15T01:21:31.914Z,3.47
2023-03-15T01:23:58.529Z,2.10
2023-03-15T01:26:25.838Z,1.42
2023-03-15T01:28:52.517Z,2.70
2023-03-15T01:31:28.885Z,3.30
2023-03-15T01:33:57.300Z,1.25
2023-03-15T01:36:24.844Z,2.70
2023-03-15T01:38:52.296Z,7.40
2023-03-15T01:41:25.785Z,4.70
2023-03-15T01:43:52.467Z,1.45
2023-03-15T01:46:34.759Z,2.38
2023-03-15T01:49:31.920Z,1.55
2023-03-15T01:52:06.698Z,2.30
2023-03-15T01:54:52.697Z,2.22
2023-03-15T01:57:36.156Z,2.03
2023-03-15T02:00:11.847Z,2.00
2023-03-15T02:02:55.259Z,2.08
2023-03-15T02:05:29.269Z,1.83
2023-03-15T02:07:56.927Z,2.30
2023-03-15T02:10:31.432Z,1.23
2023-03-15T02:13:00.563Z,1.33
2023-03-15T02:15:27.578Z,1.10
2023-03-15T02:17:54.638Z,2.00
2023-03-15T02:20:27.283Z,1.75
2023-03-15T02:25:31.520Z,1.02
2023-03-15T02:27:59.190Z,1.20
2023-03-15T02:30:25.795Z,1.50
2023-03-15T02:32:52.980Z,1.52
2023-03-15T02:35:27.059Z,2.38
2023-03-15T02:37:53.641Z,1.70
2023-03-15T02:40:22.522Z,2.88
2023-03-15T02:42:54.008Z,1.98
2023-03-15T02:45:21.713Z,2.37
2023-03-15T02:47:50.722Z,1.90
2023-03-15T02:50:17.378Z,1.38
2023-03-15T02:52:43.916Z,1.30
2023-03-15T02:55:11.031Z,1.52
2023-03-15T02:57:37.935Z,1.75
2023-03-15T03:00:14.048Z,1.42
2023-03-15T03:02:46.195Z,1.35
2023-03-15T03:05:14.984Z,1.83
2023-03-15T03:07:45.012Z,1.20
2023-03-15T03:10:15.332Z,1.80
2023-03-15T03:12:53.589Z,1.63
2023-03-15T03:15:25.930Z,1.17
2023-03-15T03:17:54.399Z,1.40
2023-03-15T03:20:23.107Z,1.15
2023-03-15T03:22:49.813Z,0.95
2023-03-15T03:25:18.077Z,0.80
2023-03-15T03:27:46.707Z,1.30
2023-03-15T03:30:14.334Z,1.38
2023-03-15T03:32:45.911Z,1.50
2023-03-15T03:35:14.820Z,1.63
2023-03-15T03:37:42.804Z,1.13
2023-03-15T03:40:14.820Z,1.40
2023-03-15T03:42:41.743Z,1.65
2023-03-15T03:45:09.167Z,2.35
2023-03-15T03:47:40.593Z,2.05
2023-03-15T03:50:09.454Z,1.70
2023-03-15T03:52:36.055Z,1.80
2023-03-15T03:55:07.334Z,1.85
2023-03-15T03:57:33.892Z,2.63
2023-03-15T04:00:00.881Z,2.80
2023-03-15T04:02:30.646Z,3.00
2023-03-15T04:05:01.435Z,2.88
2023-03-15T04:07:28.137Z,3.30
2023-03-15T04:09:55.397Z,3.40
2023-03-15T04:12:22.120Z,4.20
2023-03-15T04:14:48.831Z,4.30
2023-03-15T04:17:17.683Z,4.15
2023-03-15T04:19:46.797Z,3.50
2023-03-15T04:22:15.362Z,4.20
2023-03-15T04:25:13.595Z,3.30
2023-03-15T04:27:58.795Z,3.15
2023-03-15T04:30:47.870Z,4.32
2023-03-15T04:33:40.446Z,3.78
2023-03-15T04:36:07.387Z,3.70
2023-03-15T04:38:52.570Z,4.35
2023-03-15T04:41:39.746Z,4.32
2023-03-15T04:44:16.170Z,4.65
2023-03-15T04:47:01.379Z,4.20
2023-03-15T04:49:42.116Z,5.40
2023-03-15T04:52:19.185Z,5.72
2023-03-15T04:54:58.576Z,5.63
2023-03-15T04:57:48.047Z,5.45
2023-03-15T05:00:35.211Z,6.47
2023-03-15T05:03:15.247Z,8.15
2023-03-15T05:06:13.926Z,6.82
2023-03-15T05:09:06.174Z,6.50
2023-03-15T05:12:02.199Z,6.90
2023-03-15T05:14:55.953Z,5.80
2023-03-15T05:17:34.777Z,6.70
2023-03-15T05:20:32.689Z,7.07
2023-03-15T05:23:24.018Z,7.95
2023-03-15T05:26:06.147Z,8.35
2023-03-15T05:28:52.321Z,7.22
2023-03-15T05:31:36.789Z,6.88
2023-03-15T05:34:24.165Z,6.32
2023-03-15T05:37:10.304Z,5.93
2023-03-15T05:40:15.444Z,5.90
2023-03-15T05:42:49.114Z,6.00
2023-03-15T05:45:18.479Z,6.63
2023-03-15T05:48:04.437Z,6.30
2023-03-15T05:50:57.045Z,6.38
2023-03-15T05:53:46.020Z,5.32
2023-03-15T05:56:45.290Z,6.22
2023-03-15T05:59:32.460Z,6.43
2023-03-15T06:02:18.630Z,6.13
2023-03-15T06:04:57.643Z,5.68
2023-03-15T06:07:27.236Z,5.53
2023-03-15T06:09:54.302Z,5.88
2023-03-15T06:12:21.306Z,6.00
2023-03-15T06:14:48.811Z,6.65
2023-03-15T06:17:15.504Z,6.53
2023-03-15T06:19:44.276Z,6.70
2023-03-15T06:22:11.248Z,6.72
2023-03-15T06:24:45.351Z,7.15
2023-03-15T06:27:12.321Z,6.93
2023-03-15T06:29:39.253Z,7.78
2023-03-15T06:32:06.844Z,6.72
2023-03-15T06:34:37.666Z,8.02
2023-03-15T06:37:04.770Z,6.95
2023-03-15T06:39:34.279Z,6.90
2023-03-15T06:42:02.564Z,7.82
2023-03-15T06:44:30.810Z,7.65
2023-03-15T06:47:02.317Z,7.88
2023-03-15T06:49:28.958Z,7.30
2023-03-15T06:51:57.318Z,6.85
2023-03-15T06:54:24.280Z,8.68
2023-03-15T06:56:51.083Z,8.57
2023-03-15T06:59:17.893Z,8.98
2023-03-15T07:01:44.547Z,9.52
2023-03-15T07:04:11.099Z,10.23
2023-03-15T07:06:37.720Z,9.48
2023-03-15T07:09:05.269Z,9.40
2023-03-15T07:11:32.528Z,11.45
2023-03-15T07:13:59.425Z,12.45
2023-03-15T07:16:26.319Z,11.77
2023-03-15T07:18:55.478Z,10.45
2023-03-15T07:21:22.149Z,10.30
2023-03-15T07:23:48.714Z,10.88
2023-03-15T07:26:15.337Z,10.93
2023-03-15T07:28:44.635Z,9.55
2023-03-15T07:31:11.973Z,9.80
2023-03-15T07:33:39.108Z,9.48
2023-03-15T07:36:07.403Z,8.90
2023-03-15T07:38:35.404Z,8.48
2023-03-15T07:41:02.913Z,8.00
2023-03-15T07:43:29.491Z,8.02
2023-03-15T07:46:10.451Z,6.90
2023-03-15T07:48:37.239Z,7.88
2023-03-15T07:51:04.650Z,8.48
2023-03-15T07:53:31.246Z,6.07
2023-03-15T07:55:57.761Z,7.47
2023-03-15T07:58:24.209Z,7.43
2023-03-15T08:00:50.721Z,5.80
2023-03-15T08:03:17.586Z,5.25
2023-03-15T08:05:44.110Z,5.95
2023-03-15T08:08:10.635Z,5.60
2023-03-15T08:10:37.231Z,5.75
2023-03-15T08:13:03.780Z,5.10
2023-03-15T08:15:30.385Z,5.45
2023-03-15T08:17:56.930Z,4.90
2023-03-15T08:20:23.423Z,4.93
2023-03-15T08:22:51.370Z,5.68
2023-03-15T08:25:21.439Z,4.97
2023-03-15T08:27:48.248Z,5.57
2023-03-15T08:30:16.932Z,4.68
2023-03-15T08:32:45.448Z,4.13
2023-03-15T08:35:15.712Z,4.88
2023-03-15T08:37:46.929Z,4.22
2023-03-15T08:40:23.735Z,4.53
2023-03-15T08:42:51.034Z,4.75
2023-03-15T08:45:17.744Z,4.00
2023-03-15T08:47:44.264Z,4.45
2023-03-15T08:50:15.512Z,4.18
2023-03-15T08:52:43.122Z,4.22
2023-03-15T08:55:10.853Z,4.97
2023-03-15T08:57:37.334Z,3.78
2023-03-15T09:00:09.290Z,4.30
2023-03-15T09:02:37.109Z,3.83
2023-03-15T09:05:07.087Z,3.45
2023-03-15T09:07:34.040Z,3.63
2023-03-15T09:10:00.778Z,3.67
2023-03-15T09:12:28.307Z,3.60
2023-03-15T09:14:54.857Z,3.60
2023-03-15T09:17:21.606Z,3.80
2023-03-15T09:19:48.117Z,3.22
2023-03-15T09:22:34.897Z,3.25
2023-03-15T09:25:01.271Z,3.58
2023-03-15T09:27:33.254Z,3.90
2023-03-15T09:29:59.937Z,3.35
2023-03-15T09:32:27.144Z,2.78
2023-03-15T09:34:53.762Z,3.20
2023-03-15T09:37:21.809Z,3.97
2023-03-15T09:39:48.359Z,3.35
2023-03-15T09:42:41.722Z,3.95
2023-03-15T09:45:55.798Z,2.80
2023-03-15T09:48:32.012Z,2.75
2023-03-15T09:51:02.543Z,3.55
2023-03-15T09:53:59.254Z,2.70
2023-03-15T09:56:32.432Z,2.35
2023-03-15T09:59:02.035Z,2.45
2023-03-15T10:01:40.741Z,2.25
2023-03-15T10:04:18.690Z,2.63
2023-03-15T10:06:51.126Z,1.95
2023-03-15T10:12:08.749Z,2.40
2023-03-15T10:14:56.676Z,2.70
2023-03-15T10:18:03.748Z,2.47
2023-03-15T10:20:40.221Z,2.78
2023-03-15T10:23:20.383Z,2.15
2023-03-15T10:25:51.123Z,2.42
2023-03-15T10:28:27.407Z,2.35
2023-03-15T10:30:57.748Z,2.78
2023-03-15T10:33:38.475Z,2.30
2023-03-15T10:36:21.032Z,2.72
2023-03-15T10:41:38.812Z,2.80
2023-03-15T10:44:10.886Z,1.67
2023-03-15T10:46:37.944Z,1.48
2023-03-15T10:49:15.689Z,1.83
2023-03-15T10:51:45.334Z,1.77
2023-03-15T10:54:16.377Z,1.58
2023-03-15T10:57:02.123Z,1.30
2023-03-15T10:59:31.571Z,1.42
2023-03-15T11:02:20.280Z,1.98
2023-03-15T11:05:01.182Z,1.50
2023-03-15T11:07:28.090Z,1.55
2023-03-15T11:10:00.287Z,1.80
2023-03-15T11:12:29.777Z,2.15
2023-03-15T11:15:02.182Z,2.10
2023-03-15T11:17:33.125Z,2.08
2023-03-15T11:20:16.345Z,2.13
2023-03-15T11:22:43.096Z,1.73
2023-03-15T11:25:14.825Z,2.42
2023-03-15T11:27:46.826Z,1.40
2023-03-15T11:30:15.975Z,1.30
2023-03-15T11:32:44.603Z,1.50
2023-03-15T11:35:15.470Z,1.30
2023-03-15T11:38:03.158Z,1.50
2023-03-15T11:40:42.931Z,1.45
2023-03-15T11:43:18.331Z,1.48
2023-03-15T11:45:51.570Z,1.15
2023-03-15T11:49:03.624Z,1.65
2023-03-15T11:51:35.659Z,1.23
2023-03-15T11:54:07.138Z,2.03
2023-03-15T11:56:52.806Z,1.48
2023-03-15T11:59:25.363Z,1.60
2023-03-15T12:01:55.461Z,1.35
2023-03-15T12:04:24.465Z,1.67
2023-03-15T12:06:54.219Z,1.60
2023-03-15T12:09:32.568Z,1.63
2023-03-15T12:12:01.080Z,1.35
2023-03-15T12:14:31.178Z,1.92
2023-03-15T12:17:26.903Z,1.67
2023-03-15T12:20:08.937Z,1.92
2023-03-15T12:22:36.575Z,1.60
2023-03-15T12:25:16.544Z,2.00
2023-03-15T12:27:52.663Z,1.60
2023-03-15T12:30:23.433Z,1.35
2023-03-15T12:32:53.965Z,1.50
2023-03-15T12:35:23.076Z,1.40
2023-03-15T12:37:53.265Z,1.63
2023-03-15T12:40:20.391Z,2.28
2023-03-15T12:42:46.899Z,1.45
2023-03-15T12:45:19.355Z,1.60
2023-03-15T12:50:35.180Z,1.77
2023-03-15T12:53:04.946Z,1.73
2023-03-15T12:55:35.642Z,1.60
2023-03-15T12:58:04.617Z,1.80
2023-03-15T13:00:33.299Z,1.42
2023-03-15T13:03:11.114Z,1.38
2023-03-15T13:06:01.324Z,1.67
2023-03-15T13:08:35.758Z,1.67
2023-03-15T13:11:17.337Z,1.65
2023-03-15T13:14:05.676Z,1.50
2023-03-15T13:16:44.473Z,1.65
2023-03-15T13:19:26.214Z,1.63
2023-03-15T13:22:12.233Z,1.73
2023-03-15T13:24:52.448Z,2.00
2023-03-15T13:27:38.065Z,1.30
2023-03-15T13:30:27.874Z,1.73
2023-03-15T13:33:13.290Z,1.23
2023-03-15T13:35:53.384Z,1.67
2023-03-15T13:38:25.974Z,1.05
2023-03-15T13:40:53.677Z,1.42
2023-03-15T13:43:20.719Z,1.30
2023-03-15T13:45:47.261Z,1.50
2023-03-15T13:48:13.795Z,1.75
2023-03-15T13:50:40.889Z,1.45
2023-03-15T13:53:07.931Z,1.38
2023-03-15T13:55:36.095Z,1.48
2023-03-15T13:58:08.375Z,1.38
2023-03-15T14:00:36.341Z,1.10
2023-03-15T14:03:07.084Z,1.48
2023-03-15T14:05:43.908Z,1.10
2023-03-15T14:08:26.363Z,1.63
2023-03-15T14:11:10.052Z,1.02
2023-03-15T14:13:53.013Z,1.30
2023-03-15T14:17:01.177Z,0.63
2023-03-15T14:19:32.269Z,1.15
2023-03-15T14:22:01.447Z,1.10
2023-03-15T14:24:39.716Z,1.17
2023-03-15T14:27:16.158Z,0.90
2023-03-15T14:29:49.396Z,0.90
2023-03-15T14:32:25.151Z,1.13
2023-03-15T14:35:06.260Z,1.45
2023-03-15T14:37:39.557Z,1.27
2023-03-15T14:40:23.207Z,1.50
2023-03-15T14:42:50.856Z,1.15
2023-03-15T14:45:19.235Z,1.13
2023-03-15T14:47:56.682Z,1.15
2023-03-15T14:50:27.714Z,1.27
2023-03-15T14:52:55.932Z,1.20
2023-03-15T14:55:27.435Z,1.13
2023-03-15T14:57:53.940Z,1.00
2023-03-15T15:00:21.237Z,1.48
2023-03-15T15:02:50.767Z,1.23
2023-03-15T15:05:25.695Z,0.90
2023-03-15T15:07:58.904Z,1.15
2023-03-15T15:10:25.665Z,1.30
2023-03-15T15:13:05.184Z,1.13
2023-03-15T15:15:43.781Z,0.82
2023-03-15T15:18:14.528Z,1.80
2023-03-15T15:20:42.338Z,1.13
2023-03-15T15:23:17.273Z,1.20
2023-03-15T15:25:46.172Z,1.33
2023-03-15T15:28:15.794Z,1.27
2023-03-15T15:30:47.942Z,1.17
2023-03-15T15:33:15.136Z,0.82
2023-03-15T15:35:41.764Z,1.50
2023-03-15T15:38:11.203Z,1.40
2023-03-15T15:40:38.739Z,1.15
2023-03-15T15:43:06.029Z,1.23
2023-03-15T15:45:35.531Z,0.98
2023-03-15T15:48:06.204Z,0.93
2023-03-15T15:50:34.892Z,0.88
2023-03-15T15:53:04.465Z,1.25
2023-03-15T15:55:34.654Z,1.20
2023-03-15T15:58:02.712Z,1.10
2023-03-15T16:00:29.984Z,1.13
2023-03-15T16:02:58.023Z,1.13
2023-03-15T16:05:27.111Z,1.30
2023-03-15T16:07:55.847Z,1.23
2023-03-15T16:10:25.905Z,1.00
2023-03-15T16:12:54.870Z,1.15
2023-03-15T16:15:21.676Z,1.20
2023-03-15T16:17:48.477Z,1.20
2023-03-15T16:20:16.829Z,1.05
2023-03-15T16:22:57.339Z,1.10
2023-03-15T16:25:28.135Z,0.88
2023-03-15T16:27:56.409Z,1.10
2023-03-15T16:30:26.374Z,1.17
2023-03-15T16:32:55.210Z,0.98
2023-03-15T16:35:25.085Z,1.05
2023-03-15T16:37:56.340Z,1.00
2023-03-15T16:40:28.620Z,1.00
2023-03-15T16:42:55.592Z,1.13
2023-03-15T16:45:23.042Z,0.70
2023-03-15T16:47:49.982Z,1.38
2023-03-15T16:50:16.805Z,0.95
2023-03-15T16:52:45.558Z,0.95
2023-03-15T16:55:17.913Z,0.73
2023-03-15T16:57:44.500Z,1.27
2023-03-15T17:00:18.650Z,0.95
2023-03-15T17:02:46.806Z,1.15
2023-03-15T17:05:19.169Z,1.63
2023-03-15T17:07:47.962Z,1.67
2023-03-15T17:10:21.170Z,3.47
2023-03-15T17:12:48.343Z,3.10
2023-03-15T17:15:16.591Z,16.25
2023-03-15T17:17:43.700Z,57.17
2023-03-15T17:20:13.266Z,14.05
2023-03-15T17:22:42.050Z,4.85
2023-03-15T17:25:09.486Z,5.40
2023-03-15T17:27:40.023Z,9.57
2023-03-15T17:30:20.682Z,8.30
2023-03-15T17:32:47.810Z,19.13
2023-03-15T17:35:16.281Z,4.55
2023-03-15T17:37:46.392Z,3.38
2023-03-15T17:40:34.627Z,3.22
2023-03-15T17:43:02.925Z,4.57
2023-03-15T17:45:32.052Z,3.85
2023-03-15T17:47:59.604Z,3.17
2023-03-15T17:50:29.496Z,2.30
2023-03-15T17:53:11.304Z,3.15
2023-03-15T17:55:38.338Z,2.05
2023-03-15T17:58:18.059Z,3.35
2023-03-15T18:00:45.255Z,4.53
2023-03-15T18:03:14.628Z,3.92
2023-03-15T18:05:41.877Z,3.47
2023-03-15T18:08:14.422Z,8.13
2023-03-15T18:10:42.123Z,5.93
2023-03-15T18:13:14.309Z,8.80
2023-03-15T18:15:41.540Z,6.43
2023-03-15T18:18:08.982Z,9.15
2023-03-15T18:20:36.646Z,9.85
2023-03-15T18:23:05.077Z,5.93
2023-03-15T18:25:34.711Z,6.57
2023-03-15T18:28:01.913Z,5.35
2023-03-15T18:30:31.420Z,4.72
2023-03-15T18:32:59.547Z,7.05
2023-03-15T18:35:29.713Z,10.75
2023-03-15T18:37:57.485Z,4.32
2023-03-15T18:40:27.310Z,11.90
2023-03-15T18:42:54.962Z,13.40
2023-03-15T18:45:33.566Z,38.67
2023-03-15T18:48:00.471Z,29.23
2023-03-15T18:50:28.484Z,50.67
2023-03-15T18:52:54.996Z,30.30
2023-03-15T18:55:22.914Z,16.17
2023-03-15T18:57:52.034Z,12.45
2023-03-15T19:00:31.462Z,14.07
2023-03-15T19:03:02.727Z,19.20
2023-03-15T19:05:31.897Z,15.20
2023-03-15T19:07:58.547Z,10.02
2023-03-15T19:10:25.872Z,23.52
2023-03-15T19:12:53.336Z,13.63
2023-03-15T19:15:21.592Z,8.93
2023-03-15T19:17:50.984Z,7.38
2023-03-15T19:20:21.767Z,5.20
2023-03-15T19:22:49.451Z,5.65
2023-03-15T19:25:16.424Z,9.88
2023-03-15T19:27:43.876Z,11.40
2023-03-15T19:30:16.288Z,10.10
2023-03-15T19:32:45.655Z,6.80
2023-03-15T19:35:12.263Z,6.18
2023-03-15T19:37:38.932Z,4.95
2023-03-15T19:40:09.178Z,4.55
2023-03-15T19:42:35.950Z,7.32
2023-03-15T19:45:03.164Z,14.48
2023-03-15T19:47:29.721Z,10.18
2023-03-15T19:49:56.303Z,8.85
2023-03-15T19:52:22.933Z,11.80
2023-03-15T19:54:50.129Z,11.80
2023-03-15T19:57:17.576Z,15.23
2023-03-15T19:59:44.091Z,12.95
2023-03-15T20:02:11.265Z,10.75
2023-03-15T20:04:38.299Z,9.13
2023-03-15T20:07:05.326Z,10.48
2023-03-15T20:09:37.878Z,7.78
2023-03-15T20:14:34.701Z,21.35
2023-03-15T20:17:01.814Z,22.00
2023-03-15T20:19:28.331Z,23.00
2023-03-15T20:21:55.028Z,29.42
2023-03-15T20:24:21.893Z,22.33
2023-03-15T20:26:51.391Z,30.08
2023-03-15T20:29:18.624Z,17.45
2023-03-15T20:31:45.288Z,52.22
2023-03-15T20:34:12.144Z,26.75
2023-03-15T20:36:38.762Z,24.00
2023-03-15T20:39:08.092Z,22.17
2023-03-15T20:41:34.651Z,8.85
2023-03-15T20:44:01.253Z,27.50
2023-03-15T20:46:29.320Z,11.75
2023-03-15T20:48:56.078Z,11.20
2023-03-15T20:51:22.564Z,9.30
2023-03-15T20:53:49.465Z,7.45
2023-03-15T20:56:18.044Z,7.25
2023-03-15T20:58:47.385Z,8.35
2023-03-15T21:01:17.256Z,6.70
2023-03-15T21:03:45.487Z,8.45
2023-03-15T21:06:13.706Z,11.32
2023-03-15T21:08:41.783Z,26.70
2023-03-15T21:11:09.149Z,15.35
2023-03-15T21:13:36.432Z,12.10
2023-03-15T21:16:05.335Z,8.75
2023-03-15T21:18:35.591Z,5.00
2023-03-15T21:21:05.962Z,6.75
2023-03-15T21:23:34.040Z,3.70
2023-03-15T21:26:03.577Z,10.00
2023-03-15T21:28:31.118Z,18.10
2023-03-15T21:30:58.708Z,7.05
2023-03-15T21:33:28.746Z,11.68
2023-03-15T21:35:56.339Z,5.82
2023-03-15T21:38:23.458Z,3.30
2023-03-15T21:40:59.544Z,3.25
2023-03-15T21:43:28.660Z,3.08
2023-03-15T21:45:59.350Z,2.78
2023-03-15T21:48:26.343Z,3.45
2023-03-15T21:50:53.746Z,3.78
2023-03-15T21:53:21.746Z,2.92
2023-03-15T21:55:48.620Z,2.97
2023-03-15T21:58:15.186Z,2.75
2023-03-15T22:00:42.796Z,4.18
2023-03-15T22:03:09.585Z,4.60
2023-03-15T22:05:36.568Z,10.77
2023-03-15T22:08:03.550Z,11.38
2023-03-15T22:10:30.409Z,12.73
2023-03-15T22:12:57.115Z,5.90
2023-03-15T22:15:23.784Z,6.47
2023-03-15T22:17:50.964Z,5.70
2023-03-15T22:20:17.641Z,6.28
2023-03-15T22:22:48.957Z,13.57
2023-03-15T22:25:16.706Z,12.90
2023-03-15T22:27:43.630Z,15.63
2023-03-15T22:30:13.626Z,9.15
2023-03-15T22:32:44.256Z,9.40
2023-03-15T22:35:15.955Z,8.23
2023-03-15T22:37:43.060Z,9.73
2023-03-15T22:40:14.015Z,6.72
2023-03-15T22:42:41.483Z,9.23
2023-03-15T22:45:08.654Z,7.97
2023-03-15T22:47:35.146Z,9.73
2023-03-15T22:50:01.650Z,13.18
2023-03-15T22:52:28.499Z,13.68
2023-03-15T22:54:55.279Z,12.93
2023-03-15T22:57:22.281Z,8.75
2023-03-15T22:59:48.846Z,6.30
2023-03-15T23:02:15.427Z,7.32
2023-03-15T23:04:41.954Z,6.55
2023-03-15T23:07:08.673Z,6.43
2023-03-15T23:09:35.610Z,8.13
2023-03-15T23:12:02.188Z,9.60
2023-03-15T23:14:29.043Z,4.55
2023-03-15T23:16:55.506Z,4.93
2023-03-15T23:19:22.360Z,4.55
2023-03-15T23:21:48.894Z,4.53
2023-03-15T23:24:17.128Z,5.18
2023-03-15T23:26:44.016Z,4.80
2023-03-15T23:29:10.896Z,4.35
2023-03-15T23:31:41.815Z,4.53
2023-03-15T23:34:08.961Z,4.60
2023-03-15T23:36:35.812Z,4.10
2023-03-15T23:39:02.346Z,4.05
2023-03-15T23:41:29.128Z,3.70
2023-03-15T23:43:55.904Z,3.47
2023-03-15T23:46:25.595Z,3.22
2023-03-15T23:48:53.124Z,3.10
2023-03-15T23:51:20.000Z,3.13
2023-03-15T23:53:46.503Z,3.00
2023-03-15T23:56:13.108Z,3.20
2023-03-15T23:58:39.776Z,3.28
